sensor_id;sensor_type;location;lat;lon;timestamp;temperature;humidity
8662;DHT22;29684;47.722;9.388;2022-10-24T00:00:50;14.10;99.90
8662;DHT22;29684;47.722;9.388;2022-10-24T00:03:34;14.10;99.90
8662;DHT22;29684;47.722;9.388;2022-10-24T00:06:19;14.10;99.90
8662;DHT22;29684;47.722;9.388;2022-10-24T00:09:03;14.10;99.90
8662;DHT22;29684;47.722;9.388;2022-10-24T00:11:47;14.10;99.90
8662;DHT22;29684;47.722;9.388;2022-10-24T00:14:33;14.10;99.90
8662;DHT22;29684;47.722;9.388;2022-10-24T00:17:17;14.10;99.90
8662;DHT22;29684;47.722;9.388;2022-10-24T00:20:03;14.10;99.90
8662;DHT22;29684;47.722;9.388;2022-10-24T00:22:47;14.20;99.90
8662;DHT22;29684;47.722;9.388;2022-10-24T00:25:31;14.20;99.90
8662;DHT22;29684;47.722;9.388;2022-10-24T00:28:17;14.20;99.90
8662;DHT22;29684;47.722;9.388;2022-10-24T00:31:01;14.30;99.90
8662;DHT22;29684;47.722;9.388;2022-10-24T00:33:46;14.30;99.90
8662;DHT22;29684;47.722;9.388;2022-10-24T00:36:30;14.20;99.90
8662;DHT22;29684;47.722;9.388;2022-10-24T00:39:14;14.20;99.90
8662;DHT22;29684;47.722;9.388;2022-10-24T00:41:59;14.10;99.90
8662;DHT22;29684;47.722;9.388;2022-10-24T00:44:44;14.10;99.90
8662;DHT22;29684;47.722;9.388;2022-10-24T00:47:29;14.10;99.90
8662;DHT22;29684;47.722;9.388;2022-10-24T00:50:13;14.10;99.90
8662;DHT22;29684;47.722;9.388;2022-10-24T00:52:58;14.00;99.90
8662;DHT22;29684;47.722;9.388;2022-10-24T00:55:46;14.00;99.90
8662;DHT22;29684;47.722;9.388;2022-10-24T00:58:33;14.10;99.90
8662;DHT22;29684;47.722;9.388;2022-10-24T01:01:18;14.10;99.90
8662;DHT22;29684;47.722;9.388;2022-10-24T01:04:03;14.10;99.90
8662;DHT22;29684;47.722;9.388;2022-10-24T01:07:14;14.00;99.90
8662;DHT22;29684;47.722;9.388;2022-10-24T01:19:25;13.60;99.90
8662;DHT22;29684;47.722;9.388;2022-10-24T01:22:21;13.50;99.90
8662;DHT22;29684;47.722;9.388;2022-10-24T01:25:19;13.50;99.90
8662;DHT22;29684;47.722;9.388;2022-10-24T01:28:19;13.40;99.90
8662;DHT22;29684;47.722;9.388;2022-10-24T01:31:10;13.40;99.90
8662;DHT22;29684;47.722;9.388;2022-10-24T01:34:01;13.40;99.90
8662;DHT22;29684;47.722;9.388;2022-10-24T01:36:54;13.50;99.90
8662;DHT22;29684;47.722;9.388;2022-10-24T01:39:45;13.30;99.90
8662;DHT22;29684;47.722;9.388;2022-10-24T01:42:32;13.40;99.90
8662;DHT22;29684;47.722;9.388;2022-10-24T01:45:26;13.40;99.90
8662;DHT22;29684;47.722;9.388;2022-10-24T01:48:16;13.30;99.90
8662;DHT22;29684;47.722;9.388;2022-10-24T01:51:03;13.30;99.90
8662;DHT22;29684;47.722;9.388;2022-10-24T01:53:50;13.30;99.90
8662;DHT22;29684;47.722;9.388;2022-10-24T01:56:34;13.70;99.90
8662;DHT22;29684;47.722;9.388;2022-10-24T02:02:16;13.20;99.90
8662;DHT22;29684;47.722;9.388;2022-10-24T02:05:04;13.10;99.90
8662;DHT22;29684;47.722;9.388;2022-10-24T02:07:53;12.90;99.90
8662;DHT22;29684;47.722;9.388;2022-10-24T02:11:00;12.90;99.90
8662;DHT22;29684;47.722;9.388;2022-10-24T02:16:51;12.80;99.90
8662;DHT22;29684;47.722;9.388;2022-10-24T02:19:34;12.90;99.90
8662;DHT22;29684;47.722;9.388;2022-10-24T02:25:43;13.00;99.90
8662;DHT22;29684;47.722;9.388;2022-10-24T02:28:32;12.90;99.90
8662;DHT22;29684;47.722;9.388;2022-10-24T02:31:19;12.90;99.90
8662;DHT22;29684;47.722;9.388;2022-10-24T02:34:07;12.80;99.90
8662;DHT22;29684;47.722;9.388;2022-10-24T02:36:54;12.80;99.90
8662;DHT22;29684;47.722;9.388;2022-10-24T02:39:40;12.90;99.90
8662;DHT22;29684;47.722;9.388;2022-10-24T02:42:26;12.90;99.90
8662;DHT22;29684;47.722;9.388;2022-10-24T02:45:12;12.90;99.90
8662;DHT22;29684;47.722;9.388;2022-10-24T02:48:00;13.00;99.90
8662;DHT22;29684;47.722;9.388;2022-10-24T02:50:46;13.00;99.90
8662;DHT22;29684;47.722;9.388;2022-10-24T02:53:34;12.90;99.90
8662;DHT22;29684;47.722;9.388;2022-10-24T02:56:19;12.90;99.90
8662;DHT22;29684;47.722;9.388;2022-10-24T02:59:03;12.90;99.90
8662;DHT22;29684;47.722;9.388;2022-10-24T03:01:48;12.90;99.90
8662;DHT22;29684;47.722;9.388;2022-10-24T03:04:32;13.00;99.90
8662;DHT22;29684;47.722;9.388;2022-10-24T03:07:16;12.90;99.90
8662;DHT22;29684;47.722;9.388;2022-10-24T03:10:00;12.90;99.90
8662;DHT22;29684;47.722;9.388;2022-10-24T03:12:44;12.90;99.90
8662;DHT22;29684;47.722;9.388;2022-10-24T03:15:29;12.90;99.90
8662;DHT22;29684;47.722;9.388;2022-10-24T03:18:13;12.90;99.90
8662;DHT22;29684;47.722;9.388;2022-10-24T03:20:57;12.90;99.90
8662;DHT22;29684;47.722;9.388;2022-10-24T03:23:41;12.90;99.90
8662;DHT22;29684;47.722;9.388;2022-10-24T03:26:25;12.90;99.90
8662;DHT22;29684;47.722;9.388;2022-10-24T03:29:10;12.90;99.90
8662;DHT22;29684;47.722;9.388;2022-10-24T03:31:57;13.00;99.90
8662;DHT22;29684;47.722;9.388;2022-10-24T03:34:41;13.10;99.90
8662;DHT22;29684;47.722;9.388;2022-10-24T03:37:25;13.20;99.90
8662;DHT22;29684;47.722;9.388;2022-10-24T03:40:10;13.20;99.90
8662;DHT22;29684;47.722;9.388;2022-10-24T03:42:54;13.10;99.90
8662;DHT22;29684;47.722;9.388;2022-10-24T03:45:38;13.10;99.90
8662;DHT22;29684;47.722;9.388;2022-10-24T03:48:22;13.10;99.90
8662;DHT22;29684;47.722;9.388;2022-10-24T03:51:07;13.20;99.90
8662;DHT22;29684;47.722;9.388;2022-10-24T03:53:51;13.20;99.90
8662;DHT22;29684;47.722;9.388;2022-10-24T03:56:35;13.30;99.90
8662;DHT22;29684;47.722;9.388;2022-10-24T03:59:20;13.20;99.90
8662;DHT22;29684;47.722;9.388;2022-10-24T04:02:04;13.10;99.90
8662;DHT22;29684;47.722;9.388;2022-10-24T04:04:48;13.10;99.90
8662;DHT22;29684;47.722;9.388;2022-10-24T04:07:32;13.10;99.90
8662;DHT22;29684;47.722;9.388;2022-10-24T04:10:17;13.10;99.90
8662;DHT22;29684;47.722;9.388;2022-10-24T04:13:01;13.10;99.90
8662;DHT22;29684;47.722;9.388;2022-10-24T04:15:45;13.20;99.90
8662;DHT22;29684;47.722;9.388;2022-10-24T04:18:29;13.20;99.90
8662;DHT22;29684;47.722;9.388;2022-10-24T04:21:13;13.10;99.90
8662;DHT22;29684;47.722;9.388;2022-10-24T04:23:57;13.10;99.90
8662;DHT22;29684;47.722;9.388;2022-10-24T04:26:42;13.10;99.90
8662;DHT22;29684;47.722;9.388;2022-10-24T04:29:26;13.20;99.90
8662;DHT22;29684;47.722;9.388;2022-10-24T04:32:10;13.20;99.90
8662;DHT22;29684;47.722;9.388;2022-10-24T04:34:54;13.20;99.90
8662;DHT22;29684;47.722;9.388;2022-10-24T04:37:39;13.40;99.90
8662;DHT22;29684;47.722;9.388;2022-10-24T04:40:23;13.50;99.90
8662;DHT22;29684;47.722;9.388;2022-10-24T04:43:07;13.50;99.90
8662;DHT22;29684;47.722;9.388;2022-10-24T04:45:51;13.60;99.90
8662;DHT22;29684;47.722;9.388;2022-10-24T04:48:36;13.60;99.90
8662;DHT22;29684;47.722;9.388;2022-10-24T04:51:20;13.60;99.90
8662;DHT22;29684;47.722;9.388;2022-10-24T04:54:05;13.70;99.90
8662;DHT22;29684;47.722;9.388;2022-10-24T04:56:49;13.80;99.90
8662;DHT22;29684;47.722;9.388;2022-10-24T04:59:33;13.80;99.90
8662;DHT22;29684;47.722;9.388;2022-10-24T05:02:17;13.80;99.90
8662;DHT22;29684;47.722;9.388;2022-10-24T05:05:02;13.80;99.90
8662;DHT22;29684;47.722;9.388;2022-10-24T05:07:47;13.80;99.90
8662;DHT22;29684;47.722;9.388;2022-10-24T05:10:32;13.80;99.90
8662;DHT22;29684;47.722;9.388;2022-10-24T05:13:16;13.80;99.90
8662;DHT22;29684;47.722;9.388;2022-10-24T05:16:00;13.80;99.90
8662;DHT22;29684;47.722;9.388;2022-10-24T05:18:44;13.70;99.90
8662;DHT22;29684;47.722;9.388;2022-10-24T05:21:29;13.70;99.90
8662;DHT22;29684;47.722;9.388;2022-10-24T05:24:12;13.70;99.90
8662;DHT22;29684;47.722;9.388;2022-10-24T05:26:57;13.60;99.90
8662;DHT22;29684;47.722;9.388;2022-10-24T05:29:41;13.60;99.90
8662;DHT22;29684;47.722;9.388;2022-10-24T05:32:26;13.50;99.90
8662;DHT22;29684;47.722;9.388;2022-10-24T05:35:11;13.50;99.90
8662;DHT22;29684;47.722;9.388;2022-10-24T05:37:56;13.60;99.90
8662;DHT22;29684;47.722;9.388;2022-10-24T05:40:40;13.60;99.90
8662;DHT22;29684;47.722;9.388;2022-10-24T05:43:24;13.70;99.90
8662;DHT22;29684;47.722;9.388;2022-10-24T05:46:08;13.60;99.90
8662;DHT22;29684;47.722;9.388;2022-10-24T05:48:53;13.60;99.90
8662;DHT22;29684;47.722;9.388;2022-10-24T05:51:37;13.60;99.90
8662;DHT22;29684;47.722;9.388;2022-10-24T05:54:21;13.60;99.90
8662;DHT22;29684;47.722;9.388;2022-10-24T05:57:05;13.60;99.90
8662;DHT22;29684;47.722;9.388;2022-10-24T05:59:49;13.70;99.90
8662;DHT22;29684;47.722;9.388;2022-10-24T06:02:34;13.70;99.90
8662;DHT22;29684;47.722;9.388;2022-10-24T06:05:18;13.70;99.90
8662;DHT22;29684;47.722;9.388;2022-10-24T06:08:03;13.60;99.90
8662;DHT22;29684;47.722;9.388;2022-10-24T06:10:48;13.60;99.90
8662;DHT22;29684;47.722;9.388;2022-10-24T06:13:33;13.60;99.90
8662;DHT22;29684;47.722;9.388;2022-10-24T06:16:17;13.50;99.90
8662;DHT22;29684;47.722;9.388;2022-10-24T06:19:01;13.60;99.90
8662;DHT22;29684;47.722;9.388;2022-10-24T06:21:45;13.60;99.90
8662;DHT22;29684;47.722;9.388;2022-10-24T06:24:34;13.60;99.90
8662;DHT22;29684;47.722;9.388;2022-10-24T06:27:19;13.60;99.90
8662;DHT22;29684;47.722;9.388;2022-10-24T06:30:04;13.60;99.90
8662;DHT22;29684;47.722;9.388;2022-10-24T06:32:49;13.60;99.90
8662;DHT22;29684;47.722;9.388;2022-10-24T06:35:33;13.60;99.90
8662;DHT22;29684;47.722;9.388;2022-10-24T06:38:17;13.60;99.90
8662;DHT22;29684;47.722;9.388;2022-10-24T06:41:10;13.60;99.90
8662;DHT22;29684;47.722;9.388;2022-10-24T06:43:54;13.60;99.90
8662;DHT22;29684;47.722;9.388;2022-10-24T06:46:39;13.70;99.90
8662;DHT22;29684;47.722;9.388;2022-10-24T06:49:23;13.70;99.90
8662;DHT22;29684;47.722;9.388;2022-10-24T06:52:11;13.90;99.90
8662;DHT22;29684;47.722;9.388;2022-10-24T06:54:55;13.80;99.90
8662;DHT22;29684;47.722;9.388;2022-10-24T06:57:40;13.90;99.90
8662;DHT22;29684;47.722;9.388;2022-10-24T07:00:24;13.80;99.90
8662;DHT22;29684;47.722;9.388;2022-10-24T07:03:14;13.80;99.90
8662;DHT22;29684;47.722;9.388;2022-10-24T07:06:02;13.90;99.90
8662;DHT22;29684;47.722;9.388;2022-10-24T07:08:50;13.90;99.90
8662;DHT22;29684;47.722;9.388;2022-10-24T07:11:34;13.90;99.90
8662;DHT22;29684;47.722;9.388;2022-10-24T07:14:18;13.90;99.90
8662;DHT22;29684;47.722;9.388;2022-10-24T07:17:04;13.90;99.90
8662;DHT22;29684;47.722;9.388;2022-10-24T07:19:52;13.90;99.90
8662;DHT22;29684;47.722;9.388;2022-10-24T07:22:37;13.90;99.90
8662;DHT22;29684;47.722;9.388;2022-10-24T07:25:21;13.90;99.90
8662;DHT22;29684;47.722;9.388;2022-10-24T07:28:07;13.80;99.90
8662;DHT22;29684;47.722;9.388;2022-10-24T07:30:51;13.90;99.90
8662;DHT22;29684;47.722;9.388;2022-10-24T07:33:36;13.90;99.90
8662;DHT22;29684;47.722;9.388;2022-10-24T07:36:23;14.20;99.90
8662;DHT22;29684;47.722;9.388;2022-10-24T07:39:08;14.20;99.90
8662;DHT22;29684;47.722;9.388;2022-10-24T07:41:52;14.30;99.90
8662;DHT22;29684;47.722;9.388;2022-10-24T07:44:36;14.20;99.90
8662;DHT22;29684;47.722;9.388;2022-10-24T07:47:20;14.20;99.90
8662;DHT22;29684;47.722;9.388;2022-10-24T07:50:05;14.20;99.90
8662;DHT22;29684;47.722;9.388;2022-10-24T07:52:50;14.30;99.90
8662;DHT22;29684;47.722;9.388;2022-10-24T07:55:37;14.30;99.90
8662;DHT22;29684;47.722;9.388;2022-10-24T07:58:22;14.50;99.90
8662;DHT22;29684;47.722;9.388;2022-10-24T08:01:11;14.50;99.90
8662;DHT22;29684;47.722;9.388;2022-10-24T08:03:56;14.50;99.90
8662;DHT22;29684;47.722;9.388;2022-10-24T08:06:41;14.50;99.90
8662;DHT22;29684;47.722;9.388;2022-10-24T08:09:25;14.70;99.90
8662;DHT22;29684;47.722;9.388;2022-10-24T08:12:09;14.80;99.90
8662;DHT22;29684;47.722;9.388;2022-10-24T08:14:54;14.80;99.90
8662;DHT22;29684;47.722;9.388;2022-10-24T08:17:38;14.90;99.90
8662;DHT22;29684;47.722;9.388;2022-10-24T08:20:22;15.00;99.90
8662;DHT22;29684;47.722;9.388;2022-10-24T08:23:09;15.10;99.90
8662;DHT22;29684;47.722;9.388;2022-10-24T08:25:54;15.10;99.90
8662;DHT22;29684;47.722;9.388;2022-10-24T08:28:40;15.10;99.90
8662;DHT22;29684;47.722;9.388;2022-10-24T08:31:25;15.10;99.90
8662;DHT22;29684;47.722;9.388;2022-10-24T08:34:10;15.10;99.90
8662;DHT22;29684;47.722;9.388;2022-10-24T08:36:57;15.00;99.90
8662;DHT22;29684;47.722;9.388;2022-10-24T08:39:45;15.00;99.90
8662;DHT22;29684;47.722;9.388;2022-10-24T08:42:30;14.90;99.90
8662;DHT22;29684;47.722;9.388;2022-10-24T08:45:37;14.90;99.90
8662;DHT22;29684;47.722;9.388;2022-10-24T08:48:31;14.90;99.90
8662;DHT22;29684;47.722;9.388;2022-10-24T08:51:36;14.90;99.90
8662;DHT22;29684;47.722;9.388;2022-10-24T08:54:31;14.90;99.90
8662;DHT22;29684;47.722;9.388;2022-10-24T08:57:27;14.90;99.90
8662;DHT22;29684;47.722;9.388;2022-10-24T09:00:27;14.80;99.90
8662;DHT22;29684;47.722;9.388;2022-10-24T09:06:23;14.70;99.90
8662;DHT22;29684;47.722;9.388;2022-10-24T09:09:14;14.50;99.90
8662;DHT22;29684;47.722;9.388;2022-10-24T09:12:04;14.50;99.90
8662;DHT22;29684;47.722;9.388;2022-10-24T09:14:55;14.40;99.90
8662;DHT22;29684;47.722;9.388;2022-10-24T09:17:41;14.40;99.90
8662;DHT22;29684;47.722;9.388;2022-10-24T09:20:29;14.30;99.90
8662;DHT22;29684;47.722;9.388;2022-10-24T09:23:15;14.30;99.90
8662;DHT22;29684;47.722;9.388;2022-10-24T09:26:02;14.30;99.90
8662;DHT22;29684;47.722;9.388;2022-10-24T09:28:47;14.50;99.90
8662;DHT22;29684;47.722;9.388;2022-10-24T09:31:32;14.50;99.90
8662;DHT22;29684;47.722;9.388;2022-10-24T09:34:16;14.50;99.90
8662;DHT22;29684;47.722;9.388;2022-10-24T09:37:00;14.50;99.90
8662;DHT22;29684;47.722;9.388;2022-10-24T09:39:44;14.60;99.90
8662;DHT22;29684;47.722;9.388;2022-10-24T09:42:28;14.70;99.90
8662;DHT22;29684;47.722;9.388;2022-10-24T09:45:39;14.70;99.90
8662;DHT22;29684;47.722;9.388;2022-10-24T09:48:29;14.70;99.90
8662;DHT22;29684;47.722;9.388;2022-10-24T09:51:38;14.60;99.90
8662;DHT22;29684;47.722;9.388;2022-10-24T09:54:28;14.60;99.90
8662;DHT22;29684;47.722;9.388;2022-10-24T09:57:15;14.70;99.90
8662;DHT22;29684;47.722;9.388;2022-10-24T10:00:00;14.70;99.90
8662;DHT22;29684;47.722;9.388;2022-10-24T10:03:10;14.70;99.90
8662;DHT22;29684;47.722;9.388;2022-10-24T10:06:13;14.70;99.90
8662;DHT22;29684;47.722;9.388;2022-10-24T10:08:59;14.60;99.90
8662;DHT22;29684;47.722;9.388;2022-10-24T10:11:43;14.60;99.90
8662;DHT22;29684;47.722;9.388;2022-10-24T10:14:28;14.60;99.90
8662;DHT22;29684;47.722;9.388;2022-10-24T10:17:27;14.60;99.90
8662;DHT22;29684;47.722;9.388;2022-10-24T10:20:32;14.60;99.90
8662;DHT22;29684;47.722;9.388;2022-10-24T10:23:33;14.70;99.90
8662;DHT22;29684;47.722;9.388;2022-10-24T10:26:28;14.70;99.90
8662;DHT22;29684;47.722;9.388;2022-10-24T10:29:20;14.70;99.90
8662;DHT22;29684;47.722;9.388;2022-10-24T10:32:21;14.80;99.90
8662;DHT22;29684;47.722;9.388;2022-10-24T10:35:19;14.70;99.90
8662;DHT22;29684;47.722;9.388;2022-10-24T10:41:48;14.80;99.90
8662;DHT22;29684;47.722;9.388;2022-10-24T10:45:40;14.80;99.90
8662;DHT22;29684;47.722;9.388;2022-10-24T10:57:19;14.70;99.90
8662;DHT22;29684;47.722;9.388;2022-10-24T11:00:23;14.70;99.90
8662;DHT22;29684;47.722;9.388;2022-10-24T11:03:34;14.60;99.90
8662;DHT22;29684;47.722;9.388;2022-10-24T11:06:57;14.50;99.90
8662;DHT22;29684;47.722;9.388;2022-10-24T11:09:47;14.50;99.90
8662;DHT22;29684;47.722;9.388;2022-10-24T11:12:35;14.50;99.90
8662;DHT22;29684;47.722;9.388;2022-10-24T11:15:27;14.50;99.90
8662;DHT22;29684;47.722;9.388;2022-10-24T11:18:25;14.30;99.90
8662;DHT22;29684;47.722;9.388;2022-10-24T11:21:15;14.40;99.90
8662;DHT22;29684;47.722;9.388;2022-10-24T11:24:12;14.30;99.90
8662;DHT22;29684;47.722;9.388;2022-10-24T11:27:15;14.20;99.90
8662;DHT22;29684;47.722;9.388;2022-10-24T11:30:12;14.20;99.90
8662;DHT22;29684;47.722;9.388;2022-10-24T11:32:59;14.20;99.90
8662;DHT22;29684;47.722;9.388;2022-10-24T11:36:00;14.20;99.90
8662;DHT22;29684;47.722;9.388;2022-10-24T11:38:57;14.20;99.90
8662;DHT22;29684;47.722;9.388;2022-10-24T11:41:57;14.30;99.90
8662;DHT22;29684;47.722;9.388;2022-10-24T11:44:54;14.30;99.90
8662;DHT22;29684;47.722;9.388;2022-10-24T11:50:44;14.50;99.90
8662;DHT22;29684;47.722;9.388;2022-10-24T11:59:18;14.40;99.90
8662;DHT22;29684;47.722;9.388;2022-10-24T12:05:49;14.50;99.90
8662;DHT22;29684;47.722;9.388;2022-10-24T12:08:54;14.60;99.90
8662;DHT22;29684;47.722;9.388;2022-10-24T12:11:59;14.60;99.90
8662;DHT22;29684;47.722;9.388;2022-10-24T12:18:07;14.60;99.90
8662;DHT22;29684;47.722;9.388;2022-10-24T12:21:00;14.60;99.90
8662;DHT22;29684;47.722;9.388;2022-10-24T12:23:53;14.60;99.90
8662;DHT22;29684;47.722;9.388;2022-10-24T12:26:38;14.60;99.90
8662;DHT22;29684;47.722;9.388;2022-10-24T12:29:24;14.50;99.90
8662;DHT22;29684;47.722;9.388;2022-10-24T12:32:23;14.50;99.90
8662;DHT22;29684;47.722;9.388;2022-10-24T12:35:33;14.50;99.90
8662;DHT22;29684;47.722;9.388;2022-10-24T12:43:50;14.50;99.90
8662;DHT22;29684;47.722;9.388;2022-10-24T12:46:54;14.60;99.90
8662;DHT22;29684;47.722;9.388;2022-10-24T12:49:39;14.60;99.90
8662;DHT22;29684;47.722;9.388;2022-10-24T12:58:35;14.60;99.90
8662;DHT22;29684;47.722;9.388;2022-10-24T13:01:34;14.50;99.90
8662;DHT22;29684;47.722;9.388;2022-10-24T13:13:20;14.70;99.90
8662;DHT22;29684;47.722;9.388;2022-10-24T13:21:49;14.80;99.90
8662;DHT22;29684;47.722;9.388;2022-10-24T13:24:36;14.70;99.90
8662;DHT22;29684;47.722;9.388;2022-10-24T13:27:27;14.70;99.90
8662;DHT22;29684;47.722;9.388;2022-10-24T13:30:24;15.00;99.90
8662;DHT22;29684;47.722;9.388;2022-10-24T13:36:20;14.60;99.90
8662;DHT22;29684;47.722;9.388;2022-10-24T13:39:11;16.30;99.90
8662;DHT22;29684;47.722;9.388;2022-10-24T13:42:02;14.50;99.90
8662;DHT22;29684;47.722;9.388;2022-10-24T13:44:58;14.50;99.90
8662;DHT22;29684;47.722;9.388;2022-10-24T13:47:44;14.50;99.90
8662;DHT22;29684;47.722;9.388;2022-10-24T13:50:34;14.40;99.90
8662;DHT22;29684;47.722;9.388;2022-10-24T13:53:23;14.40;99.90
8662;DHT22;29684;47.722;9.388;2022-10-24T13:56:09;14.50;99.90
8662;DHT22;29684;47.722;9.388;2022-10-24T13:58:54;14.60;99.90
8662;DHT22;29684;47.722;9.388;2022-10-24T14:01:39;14.50;99.90
8662;DHT22;29684;47.722;9.388;2022-10-24T14:04:25;14.60;99.90
8662;DHT22;29684;47.722;9.388;2022-10-24T14:07:17;14.70;99.90
8662;DHT22;29684;47.722;9.388;2022-10-24T14:10:12;14.80;99.90
8662;DHT22;29684;47.722;9.388;2022-10-24T14:12:58;14.90;99.90
8662;DHT22;29684;47.722;9.388;2022-10-24T14:15:48;14.90;99.90
8662;DHT22;29684;47.722;9.388;2022-10-24T14:18:33;15.00;99.90
8662;DHT22;29684;47.722;9.388;2022-10-24T14:21:21;14.90;99.90
8662;DHT22;29684;47.722;9.388;2022-10-24T14:24:08;14.90;99.90
8662;DHT22;29684;47.722;9.388;2022-10-24T14:26:57;14.90;99.90
8662;DHT22;29684;47.722;9.388;2022-10-24T14:29:55;14.80;99.90
8662;DHT22;29684;47.722;9.388;2022-10-24T14:32:39;14.80;99.90
8662;DHT22;29684;47.722;9.388;2022-10-24T14:35:23;14.80;99.90
8662;DHT22;29684;47.722;9.388;2022-10-24T14:38:12;14.90;99.90
8662;DHT22;29684;47.722;9.388;2022-10-24T14:40:58;14.80;99.90
8662;DHT22;29684;47.722;9.388;2022-10-24T14:43:43;14.60;99.90
8662;DHT22;29684;47.722;9.388;2022-10-24T14:46:42;14.60;99.90
8662;DHT22;29684;47.722;9.388;2022-10-24T14:57:56;14.40;99.90
8662;DHT22;29684;47.722;9.388;2022-10-24T15:00:41;14.30;99.90
8662;DHT22;29684;47.722;9.388;2022-10-24T15:03:27;14.40;99.90
8662;DHT22;29684;47.722;9.388;2022-10-24T15:06:38;14.40;99.90
8662;DHT22;29684;47.722;9.388;2022-10-24T15:09:22;14.40;99.90
8662;DHT22;29684;47.722;9.388;2022-10-24T15:12:11;14.30;99.90
8662;DHT22;29684;47.722;9.388;2022-10-24T15:15:16;14.30;99.90
8662;DHT22;29684;47.722;9.388;2022-10-24T15:18:11;14.30;99.90
8662;DHT22;29684;47.722;9.388;2022-10-24T15:21:02;14.30;99.90
8662;DHT22;29684;47.722;9.388;2022-10-24T15:23:57;14.30;99.90
8662;DHT22;29684;47.722;9.388;2022-10-24T15:26:42;14.20;99.90
8662;DHT22;29684;47.722;9.388;2022-10-24T15:29:28;14.20;99.90
8662;DHT22;29684;47.722;9.388;2022-10-24T15:32:14;14.20;99.90
8662;DHT22;29684;47.722;9.388;2022-10-24T15:34:58;14.10;99.90
8662;DHT22;29684;47.722;9.388;2022-10-24T15:37:54;14.10;99.90
8662;DHT22;29684;47.722;9.388;2022-10-24T15:40:42;14.10;99.90
8662;DHT22;29684;47.722;9.388;2022-10-24T15:43:26;14.00;99.90
8662;DHT22;29684;47.722;9.388;2022-10-24T15:46:11;14.10;99.90
8662;DHT22;29684;47.722;9.388;2022-10-24T15:48:55;14.10;99.90
8662;DHT22;29684;47.722;9.388;2022-10-24T15:51:42;14.00;99.90
8662;DHT22;29684;47.722;9.388;2022-10-24T15:54:27;14.00;99.90
8662;DHT22;29684;47.722;9.388;2022-10-24T15:57:17;14.10;99.90
8662;DHT22;29684;47.722;9.388;2022-10-24T16:00:02;14.20;99.90
8662;DHT22;29684;47.722;9.388;2022-10-24T16:02:48;14.10;99.90
8662;DHT22;29684;47.722;9.388;2022-10-24T16:05:42;14.20;99.90
8662;DHT22;29684;47.722;9.388;2022-10-24T16:08:27;14.00;99.90
8662;DHT22;29684;47.722;9.388;2022-10-24T16:11:11;14.00;99.90
8662;DHT22;29684;47.722;9.388;2022-10-24T16:13:56;14.10;99.90
8662;DHT22;29684;47.722;9.388;2022-10-24T16:16:40;14.00;99.90
8662;DHT22;29684;47.722;9.388;2022-10-24T16:19:25;14.00;99.90
8662;DHT22;29684;47.722;9.388;2022-10-24T16:22:10;14.00;99.90
8662;DHT22;29684;47.722;9.388;2022-10-24T16:24:54;14.00;99.90
8662;DHT22;29684;47.722;9.388;2022-10-24T16:27:38;13.90;99.90
8662;DHT22;29684;47.722;9.388;2022-10-24T16:30:26;13.90;99.90
8662;DHT22;29684;47.722;9.388;2022-10-24T16:33:11;13.80;99.90
8662;DHT22;29684;47.722;9.388;2022-10-24T16:35:55;13.80;99.90
8662;DHT22;29684;47.722;9.388;2022-10-24T16:38:40;13.80;99.90
8662;DHT22;29684;47.722;9.388;2022-10-24T16:41:25;13.70;99.90
8662;DHT22;29684;47.722;9.388;2022-10-24T16:44:09;13.20;99.90
8662;DHT22;29684;47.722;9.388;2022-10-24T16:46:53;13.70;99.90
8662;DHT22;29684;47.722;9.388;2022-10-24T16:49:37;13.70;99.90
8662;DHT22;29684;47.722;9.388;2022-10-24T16:52:22;13.70;99.90
8662;DHT22;29684;47.722;9.388;2022-10-24T16:55:07;13.50;99.90
8662;DHT22;29684;47.722;9.388;2022-10-24T16:57:53;13.50;99.90
8662;DHT22;29684;47.722;9.388;2022-10-24T17:00:37;13.40;99.90
8662;DHT22;29684;47.722;9.388;2022-10-24T17:03:22;13.30;99.90
8662;DHT22;29684;47.722;9.388;2022-10-24T17:06:07;13.30;99.90
8662;DHT22;29684;47.722;9.388;2022-10-24T17:08:51;13.20;99.90
8662;DHT22;29684;47.722;9.388;2022-10-24T17:11:36;13.30;99.90
8662;DHT22;29684;47.722;9.388;2022-10-24T17:14:20;13.20;99.90
8662;DHT22;29684;47.722;9.388;2022-10-24T17:17:05;13.20;99.90
8662;DHT22;29684;47.722;9.388;2022-10-24T17:19:52;13.20;99.90
8662;DHT22;29684;47.722;9.388;2022-10-24T17:22:40;13.10;99.90
8662;DHT22;29684;47.722;9.388;2022-10-24T17:25:26;13.20;99.90
8662;DHT22;29684;47.722;9.388;2022-10-24T17:28:14;13.20;99.90
8662;DHT22;29684;47.722;9.388;2022-10-24T17:30:59;13.10;99.90
8662;DHT22;29684;47.722;9.388;2022-10-24T17:33:45;13.10;99.90
8662;DHT22;29684;47.722;9.388;2022-10-24T17:36:35;13.10;99.90
8662;DHT22;29684;47.722;9.388;2022-10-24T17:39:24;13.20;99.90
8662;DHT22;29684;47.722;9.388;2022-10-24T17:42:09;13.20;99.90
8662;DHT22;29684;47.722;9.388;2022-10-24T17:44:56;13.30;99.90
8662;DHT22;29684;47.722;9.388;2022-10-24T17:47:40;13.20;99.90
8662;DHT22;29684;47.722;9.388;2022-10-24T17:50:24;13.20;99.90
8662;DHT22;29684;47.722;9.388;2022-10-24T17:53:16;13.10;99.90
8662;DHT22;29684;47.722;9.388;2022-10-24T17:56:00;13.10;99.90
8662;DHT22;29684;47.722;9.388;2022-10-24T17:58:44;13.00;99.90
8662;DHT22;29684;47.722;9.388;2022-10-24T18:01:34;13.00;99.90
8662;DHT22;29684;47.722;9.388;2022-10-24T18:04:18;12.90;99.90
8662;DHT22;29684;47.722;9.388;2022-10-24T18:07:02;13.30;99.90
8662;DHT22;29684;47.722;9.388;2022-10-24T18:09:46;12.70;99.90
8662;DHT22;29684;47.722;9.388;2022-10-24T18:12:32;12.70;99.90
8662;DHT22;29684;47.722;9.388;2022-10-24T18:15:21;12.70;99.90
8662;DHT22;29684;47.722;9.388;2022-10-24T18:18:05;12.70;99.90
8662;DHT22;29684;47.722;9.388;2022-10-24T18:20:49;12.60;99.90
8662;DHT22;29684;47.722;9.388;2022-10-24T18:23:34;12.50;99.90
8662;DHT22;29684;47.722;9.388;2022-10-24T18:26:20;12.40;99.90
8662;DHT22;29684;47.722;9.388;2022-10-24T18:29:05;12.30;99.90
8662;DHT22;29684;47.722;9.388;2022-10-24T18:31:49;12.30;99.90
8662;DHT22;29684;47.722;9.388;2022-10-24T18:34:33;13.00;99.90
8662;DHT22;29684;47.722;9.388;2022-10-24T18:37:17;12.20;99.90
8662;DHT22;29684;47.722;9.388;2022-10-24T18:40:04;12.20;99.90
8662;DHT22;29684;47.722;9.388;2022-10-24T18:42:56;12.10;99.90
8662;DHT22;29684;47.722;9.388;2022-10-24T18:45:42;12.00;99.90
8662;DHT22;29684;47.722;9.388;2022-10-24T18:48:26;12.10;99.90
8662;DHT22;29684;47.722;9.388;2022-10-24T18:54:08;11.90;99.90
8662;DHT22;29684;47.722;9.388;2022-10-24T18:56:53;11.90;99.90
8662;DHT22;29684;47.722;9.388;2022-10-24T18:59:37;11.90;99.90
8662;DHT22;29684;47.722;9.388;2022-10-24T19:05:44;11.90;99.90
8662;DHT22;29684;47.722;9.388;2022-10-24T19:08:29;11.80;99.90
8662;DHT22;29684;47.722;9.388;2022-10-24T19:11:13;11.70;99.90
8662;DHT22;29684;47.722;9.388;2022-10-24T19:13:58;11.70;99.90
8662;DHT22;29684;47.722;9.388;2022-10-24T19:16:47;11.60;99.90
8662;DHT22;29684;47.722;9.388;2022-10-24T19:19:33;11.70;99.90
8662;DHT22;29684;47.722;9.388;2022-10-24T19:22:18;11.80;99.90
8662;DHT22;29684;47.722;9.388;2022-10-24T19:25:02;11.70;99.90
8662;DHT22;29684;47.722;9.388;2022-10-24T19:27:47;11.60;99.90
8662;DHT22;29684;47.722;9.388;2022-10-24T19:30:32;11.50;99.90